Waterville, KS (66548)

4:51 PM CST on February 13, 2016 (GMT -0600)
APRSWXNET | | Change Station
CLOSE
Current Station
Personal Weather Station
Location: Greenleaf, KS
Elevation: 1300 ft
Nearby Weather Stations

Elev 1300 ft 39.67 °N, 96.96 °W | Updated 23 minutes ago

Mostly Cloudy
Mostly Cloudy
24 °F
Feels Like 13 °F
N
11
Wind Variable Wind from SE
Gusts 19.0 mph

Today
High -- | Low -- °F
--% Chance of Precip.
Yesterday
High -- | Low -- °F
Precip. -- in
Pressure 30.31 in
Visibility 10.0 miles
Clouds Clear
Windchill 13 °F
Dew Point 7 °F
Humidity 47%
Rainfall in
Snow Depth Not available.
7:22 AM 6:00 PM
Waxing Crescent, 35% visible
METAR KMHK 132152Z 09015G19KT 10SM CLR M01/M17 A3027 RMK AO2 SLP262 T10111167
Pressure 30.31 in
Visibility 10.0 miles
Clouds Clear
Windchill 13 °F
Dew Point 7 °F
Humidity 47%
Rainfall in
Snow Depth Not available.
7:22 AM 6:00 PM
Waxing Crescent, 35% visible
METAR KMHK 132152Z 09015G19KT 10SM CLR M01/M17 A3027 RMK AO2 SLP262 T10111167

10-Day Weather Forecast

Almanac

Astronomy

Feb. 13, 2016 Rise Set
Actual Time
Civil Twilight
Nautical Twilight
Astronomical Twilight
Moon
Length of Visible Light
Length of Day
Tomorrow will be .
, % of the Moon is Illuminated

Today's Extremes

State Highs State Lows

Community

WunderPhotos

Upload Photos

1,892,689 photos uploaded!

WunderBlog® & News

Nearby

Air Quality

  Air Quality AQ Index Pollutant
Not available.

Snow Depth

Station Depth Elevation

Earthquake Activity

City Distance Mag. Time & Date
Minimum magnitude displayed is 2.5.

Coastal Water Temperatures

Place Temperature

Stations

Nearby Weather Stations

Station Location Temp. Windchill Dew Point Humidity Wind Precip. Elev Updated Type
                   

Watches & Warnings

There are currently no watches in effect.